sensor_id;sensor_type;location;lat;lon;timestamp;P1;durP1;ratioP1;P2;durP2;ratioP2
17496;SDS011;62150;43.582;1.456;2023-03-01T06:29:59;14.33;;;7.00;;
17496;SDS011;62150;43.582;1.456;2023-03-01T06:32:28;13.93;;;6.17;;
17496;SDS011;62150;43.582;1.456;2023-03-01T06:34:56;13.07;;;6.63;;
17496;SDS011;62150;43.582;1.456;2023-03-01T06:37:24;12.30;;;5.90;;
17496;SDS011;62150;43.582;1.456;2023-03-01T06:39:51;12.40;;;5.73;;
17496;SDS011;62150;43.582;1.456;2023-03-01T06:42:19;13.13;;;6.47;;
17496;SDS011;62150;43.582;1.456;2023-03-01T06:44:46;12.50;;;6.43;;
17496;SDS011;62150;43.582;1.456;2023-03-01T06:47:15;12.83;;;6.30;;
17496;SDS011;62150;43.582;1.456;2023-03-01T06:49:43;13.07;;;6.00;;
17496;SDS011;62150;43.582;1.456;2023-03-01T06:52:10;12.13;;;5.90;;
17496;SDS011;62150;43.582;1.456;2023-03-01T06:54:38;11.10;;;5.77;;
17496;SDS011;62150;43.582;1.456;2023-03-01T06:57:05;12.57;;;6.07;;
17496;SDS011;62150;43.582;1.456;2023-03-01T06:59:33;11.87;;;6.10;;
17496;SDS011;62150;43.582;1.456;2023-03-01T07:02:00;12.33;;;5.93;;
17496;SDS011;62150;43.582;1.456;2023-03-01T07:04:29;12.20;;;6.17;;
17496;SDS011;62150;43.582;1.456;2023-03-01T07:06:57;12.37;;;5.63;;
17496;SDS011;62150;43.582;1.456;2023-03-01T07:09:24;11.40;;;5.47;;
17496;SDS011;62150;43.582;1.456;2023-03-01T07:11:52;12.47;;;6.17;;
17496;SDS011;62150;43.582;1.456;2023-03-01T07:14:19;12.40;;;6.07;;
17496;SDS011;62150;43.582;1.456;2023-03-01T07:16:49;12.37;;;5.97;;
17496;SDS011;62150;43.582;1.456;2023-03-01T07:19:17;12.43;;;6.30;;
17496;SDS011;62150;43.582;1.456;2023-03-01T07:21:46;13.73;;;6.03;;
17496;SDS011;62150;43.582;1.456;2023-03-01T07:24:13;11.57;;;5.77;;
17496;SDS011;62150;43.582;1.456;2023-03-01T07:26:41;11.90;;;6.07;;
17496;SDS011;62150;43.582;1.456;2023-03-01T07:29:09;12.50;;;5.77;;
17496;SDS011;62150;43.582;1.456;2023-03-01T07:31:37;12.30;;;5.70;;
17496;SDS011;62150;43.582;1.456;2023-03-01T07:34:04;12.90;;;6.20;;
17496;SDS011;62150;43.582;1.456;2023-03-01T07:36:32;12.13;;;6.07;;
17496;SDS011;62150;43.582;1.456;2023-03-01T07:39:01;13.67;;;6.53;;
17496;SDS011;62150;43.582;1.456;2023-03-01T07:41:29;11.53;;;5.90;;
17496;SDS011;62150;43.582;1.456;2023-03-01T07:43:56;13.83;;;6.93;;
17496;SDS011;62150;43.582;1.456;2023-03-01T07:46:24;13.10;;;6.97;;
17496;SDS011;62150;43.582;1.456;2023-03-01T07:48:51;12.83;;;6.57;;
17496;SDS011;62150;43.582;1.456;2023-03-01T07:51:19;13.90;;;6.83;;
17496;SDS011;62150;43.582;1.456;2023-03-01T07:53:46;12.70;;;5.97;;
17496;SDS011;62150;43.582;1.456;2023-03-01T07:56:16;12.93;;;6.23;;
17496;SDS011;62150;43.582;1.456;2023-03-01T07:58:45;13.13;;;6.63;;
17496;SDS011;62150;43.582;1.456;2023-03-01T08:01:13;12.83;;;6.00;;
17496;SDS011;62150;43.582;1.456;2023-03-01T08:03:41;13.53;;;6.17;;
17496;SDS011;62150;43.582;1.456;2023-03-01T08:06:10;12.03;;;6.53;;
17496;SDS011;62150;43.582;1.456;2023-03-01T08:08:39;13.10;;;6.47;;
17496;SDS011;62150;43.582;1.456;2023-03-01T08:11:07;13.47;;;7.23;;
17496;SDS011;62150;43.582;1.456;2023-03-01T08:13:38;14.90;;;7.50;;
17496;SDS011;62150;43.582;1.456;2023-03-01T08:16:06;13.90;;;6.73;;
17496;SDS011;62150;43.582;1.456;2023-03-01T08:18:36;12.90;;;6.73;;
17496;SDS011;62150;43.582;1.456;2023-03-01T08:21:04;12.47;;;6.60;;
17496;SDS011;62150;43.582;1.456;2023-03-01T08:23:33;13.10;;;7.07;;
17496;SDS011;62150;43.582;1.456;2023-03-01T08:26:05;13.70;;;6.83;;
17496;SDS011;62150;43.582;1.456;2023-03-01T08:28:33;15.90;;;6.93;;
17496;SDS011;62150;43.582;1.456;2023-03-01T08:31:02;13.00;;;6.73;;
17496;SDS011;62150;43.582;1.456;2023-03-01T08:33:38;12.50;;;7.20;;
17496;SDS011;62150;43.582;1.456;2023-03-01T08:36:06;13.40;;;7.37;;
17496;SDS011;62150;43.582;1.456;2023-03-01T08:38:34;13.80;;;7.30;;
17496;SDS011;62150;43.582;1.456;2023-03-01T08:41:02;14.93;;;7.87;;
17496;SDS011;62150;43.582;1.456;2023-03-01T08:43:30;15.60;;;8.70;;
17496;SDS011;62150;43.582;1.456;2023-03-01T08:45:58;14.33;;;7.40;;
17496;SDS011;62150;43.582;1.456;2023-03-01T08:48:28;13.83;;;7.00;;
17496;SDS011;62150;43.582;1.456;2023-03-01T08:50:56;14.77;;;7.37;;
17496;SDS011;62150;43.582;1.456;2023-03-01T08:53:32;13.27;;;7.27;;
17496;SDS011;62150;43.582;1.456;2023-03-01T08:56:00;13.83;;;7.20;;
17496;SDS011;62150;43.582;1.456;2023-03-01T08:58:28;12.40;;;7.20;;
17496;SDS011;62150;43.582;1.456;2023-03-01T09:00:55;14.87;;;7.17;;
17496;SDS011;62150;43.582;1.456;2023-03-01T09:03:24;15.13;;;7.60;;
17496;SDS011;62150;43.582;1.456;2023-03-01T09:05:53;13.40;;;7.50;;
17496;SDS011;62150;43.582;1.456;2023-03-01T09:08:25;14.30;;;7.23;;
17496;SDS011;62150;43.582;1.456;2023-03-01T09:10:53;13.93;;;7.83;;
17496;SDS011;62150;43.582;1.456;2023-03-01T09:13:21;13.93;;;7.20;;
17496;SDS011;62150;43.582;1.456;2023-03-01T09:15:49;15.30;;;7.77;;
17496;SDS011;62150;43.582;1.456;2023-03-01T09:18:17;17.27;;;7.97;;
17496;SDS011;62150;43.582;1.456;2023-03-01T09:20:45;13.77;;;6.93;;
17496;SDS011;62150;43.582;1.456;2023-03-01T09:23:13;13.70;;;7.00;;
17496;SDS011;62150;43.582;1.456;2023-03-01T09:25:41;14.33;;;7.53;;
17496;SDS011;62150;43.582;1.456;2023-03-01T09:28:08;14.03;;;6.73;;
17496;SDS011;62150;43.582;1.456;2023-03-01T09:30:36;13.93;;;6.90;;
17496;SDS011;62150;43.582;1.456;2023-03-01T09:33:03;12.87;;;6.90;;
17496;SDS011;62150;43.582;1.456;2023-03-01T09:35:31;15.70;;;8.33;;
17496;SDS011;62150;43.582;1.456;2023-03-01T09:37:58;13.87;;;7.13;;
17496;SDS011;62150;43.582;1.456;2023-03-01T09:40:27;13.73;;;7.27;;
17496;SDS011;62150;43.582;1.456;2023-03-01T09:43:00;12.27;;;6.67;;
17496;SDS011;62150;43.582;1.456;2023-03-01T09:45:37;15.47;;;8.73;;
17496;SDS011;62150;43.582;1.456;2023-03-01T09:48:09;13.17;;;6.73;;
17496;SDS011;62150;43.582;1.456;2023-03-01T09:50:42;12.97;;;6.90;;
17496;SDS011;62150;43.582;1.456;2023-03-01T09:53:13;13.27;;;7.17;;
17496;SDS011;62150;43.582;1.456;2023-03-01T09:55:44;13.00;;;6.77;;
17496;SDS011;62150;43.582;1.456;2023-03-01T10:01:26;12.83;;;6.57;;
17496;SDS011;62150;43.582;1.456;2023-03-01T10:04:12;12.60;;;6.20;;
17496;SDS011;62150;43.582;1.456;2023-03-01T10:06:58;13.23;;;6.27;;
17496;SDS011;62150;43.582;1.456;2023-03-01T10:09:43;12.97;;;6.60;;
17496;SDS011;62150;43.582;1.456;2023-03-01T10:12:15;11.77;;;6.10;;
17496;SDS011;62150;43.582;1.456;2023-03-01T10:14:48;11.90;;;6.00;;
17496;SDS011;62150;43.582;1.456;2023-03-01T10:17:24;13.60;;;7.10;;
17496;SDS011;62150;43.582;1.456;2023-03-01T10:19:56;12.70;;;6.03;;
17496;SDS011;62150;43.582;1.456;2023-03-01T10:22:37;12.43;;;6.17;;
17496;SDS011;62150;43.582;1.456;2023-03-01T10:25:04;11.27;;;5.90;;
17496;SDS011;62150;43.582;1.456;2023-03-01T10:27:36;14.30;;;8.10;;
17496;SDS011;62150;43.582;1.456;2023-03-01T10:30:11;11.77;;;5.90;;
17496;SDS011;62150;43.582;1.456;2023-03-01T10:32:45;12.70;;;6.40;;
17496;SDS011;62150;43.582;1.456;2023-03-01T10:35:16;12.23;;;5.83;;
17496;SDS011;62150;43.582;1.456;2023-03-01T10:37:58;12.33;;;6.10;;
17496;SDS011;62150;43.582;1.456;2023-03-01T10:40:29;12.50;;;6.50;;
17496;SDS011;62150;43.582;1.456;2023-03-01T10:42:58;10.97;;;5.60;;
17496;SDS011;62150;43.582;1.456;2023-03-01T10:45:33;13.27;;;6.27;;
17496;SDS011;62150;43.582;1.456;2023-03-01T10:48:12;13.13;;;6.30;;
17496;SDS011;62150;43.582;1.456;2023-03-01T10:50:42;12.40;;;5.80;;
17496;SDS011;62150;43.582;1.456;2023-03-01T10:53:21;10.00;;;4.97;;
17496;SDS011;62150;43.582;1.456;2023-03-01T10:55:58;12.10;;;5.57;;
17496;SDS011;62150;43.582;1.456;2023-03-01T10:58:31;11.90;;;6.27;;
17496;SDS011;62150;43.582;1.456;2023-03-01T11:01:01;10.50;;;5.50;;
17496;SDS011;62150;43.582;1.456;2023-03-01T11:03:30;12.03;;;6.23;;
17496;SDS011;62150;43.582;1.456;2023-03-01T11:06:03;12.57;;;5.97;;
17496;SDS011;62150;43.582;1.456;2023-03-01T11:08:46;10.63;;;5.13;;
17496;SDS011;62150;43.582;1.456;2023-03-01T11:11:24;11.57;;;5.70;;
17496;SDS011;62150;43.582;1.456;2023-03-01T11:13:59;12.37;;;6.60;;
17496;SDS011;62150;43.582;1.456;2023-03-01T11:16:32;11.60;;;5.97;;
17496;SDS011;62150;43.582;1.456;2023-03-01T11:19:13;12.27;;;5.87;;
17496;SDS011;62150;43.582;1.456;2023-03-01T11:21:55;11.93;;;5.50;;
17496;SDS011;62150;43.582;1.456;2023-03-01T11:24:30;12.33;;;6.47;;
17496;SDS011;62150;43.582;1.456;2023-03-01T11:27:04;12.30;;;5.80;;
17496;SDS011;62150;43.582;1.456;2023-03-01T11:29:42;11.10;;;5.20;;
17496;SDS011;62150;43.582;1.456;2023-03-01T11:32:16;11.13;;;5.50;;
17496;SDS011;62150;43.582;1.456;2023-03-01T11:34:47;12.13;;;5.67;;
17496;SDS011;62150;43.582;1.456;2023-03-01T11:37:23;12.30;;;6.37;;
17496;SDS011;62150;43.582;1.456;2023-03-01T11:39:59;12.40;;;6.03;;
17496;SDS011;62150;43.582;1.456;2023-03-01T11:42:40;10.93;;;5.70;;
17496;SDS011;62150;43.582;1.456;2023-03-01T11:45:18;10.47;;;5.07;;
17496;SDS011;62150;43.582;1.456;2023-03-01T11:47:58;11.03;;;5.70;;
17496;SDS011;62150;43.582;1.456;2023-03-01T11:50:35;12.70;;;6.57;;
17496;SDS011;62150;43.582;1.456;2023-03-01T11:53:14;12.03;;;5.80;;
17496;SDS011;62150;43.582;1.456;2023-03-01T11:55:59;10.60;;;5.10;;
17496;SDS011;62150;43.582;1.456;2023-03-01T11:58:42;12.33;;;5.93;;
17496;SDS011;62150;43.582;1.456;2023-03-01T12:01:23;11.27;;;5.83;;
17496;SDS011;62150;43.582;1.456;2023-03-01T12:06:59;11.57;;;5.50;;
17496;SDS011;62150;43.582;1.456;2023-03-01T12:09:44;11.40;;;5.17;;
17496;SDS011;62150;43.582;1.456;2023-03-01T12:12:32;10.40;;;5.07;;
17496;SDS011;62150;43.582;1.456;2023-03-01T12:15:20;10.80;;;5.37;;
17496;SDS011;62150;43.582;1.456;2023-03-01T12:18:13;10.23;;;5.10;;
17496;SDS011;62150;43.582;1.456;2023-03-01T12:21:02;9.37;;;4.60;;
17496;SDS011;62150;43.582;1.456;2023-03-01T12:26:48;13.03;;;6.33;;
17496;SDS011;62150;43.582;1.456;2023-03-01T12:29:25;11.93;;;5.80;;
17496;SDS011;62150;43.582;1.456;2023-03-01T12:32:04;11.37;;;5.70;;
17496;SDS011;62150;43.582;1.456;2023-03-01T12:34:59;10.97;;;5.73;;
17496;SDS011;62150;43.582;1.456;2023-03-01T12:37:48;10.20;;;5.43;;
17496;SDS011;62150;43.582;1.456;2023-03-01T12:40:33;11.00;;;5.20;;
17496;SDS011;62150;43.582;1.456;2023-03-01T12:43:17;11.97;;;5.73;;
17496;SDS011;62150;43.582;1.456;2023-03-01T12:45:58;11.97;;;6.10;;
17496;SDS011;62150;43.582;1.456;2023-03-01T12:48:39;11.70;;;5.60;;
17496;SDS011;62150;43.582;1.456;2023-03-01T12:51:15;12.23;;;5.87;;
17496;SDS011;62150;43.582;1.456;2023-03-01T12:53:47;11.27;;;5.50;;
17496;SDS011;62150;43.582;1.456;2023-03-01T12:56:17;11.97;;;5.60;;
17496;SDS011;62150;43.582;1.456;2023-03-01T12:58:51;11.33;;;5.10;;
17496;SDS011;62150;43.582;1.456;2023-03-01T13:01:28;12.33;;;5.87;;
17496;SDS011;62150;43.582;1.456;2023-03-01T13:04:08;10.90;;;5.60;;
17496;SDS011;62150;43.582;1.456;2023-03-01T13:06:57;11.57;;;5.40;;
17496;SDS011;62150;43.582;1.456;2023-03-01T13:09:33;11.53;;;5.80;;
17496;SDS011;62150;43.582;1.456;2023-03-01T13:15:18;11.93;;;5.93;;
17496;SDS011;62150;43.582;1.456;2023-03-01T13:17:56;11.00;;;5.23;;
17496;SDS011;62150;43.582;1.456;2023-03-01T13:20:26;11.67;;;6.43;;
17496;SDS011;62150;43.582;1.456;2023-03-01T13:23:03;11.20;;;5.57;;
17496;SDS011;62150;43.582;1.456;2023-03-01T13:25:33;11.30;;;5.73;;
17496;SDS011;62150;43.582;1.456;2023-03-01T13:34:41;10.97;;;5.03;;
17496;SDS011;62150;43.582;1.456;2023-03-01T13:37:18;9.87;;;4.60;;
17496;SDS011;62150;43.582;1.456;2023-03-01T13:39:49;11.03;;;5.60;;
17496;SDS011;62150;43.582;1.456;2023-03-01T13:42:31;10.33;;;4.77;;
17496;SDS011;62150;43.582;1.456;2023-03-01T13:45:22;9.77;;;4.80;;
17496;SDS011;62150;43.582;1.456;2023-03-01T13:48:00;10.17;;;5.00;;
17496;SDS011;62150;43.582;1.456;2023-03-01T13:50:33;9.27;;;4.60;;
17496;SDS011;62150;43.582;1.456;2023-03-01T13:53:05;10.20;;;4.97;;
17496;SDS011;62150;43.582;1.456;2023-03-01T13:55:41;10.10;;;5.10;;
17496;SDS011;62150;43.582;1.456;2023-03-01T13:58:19;10.97;;;5.47;;
17496;SDS011;62150;43.582;1.456;2023-03-01T14:00:55;10.37;;;5.20;;
17496;SDS011;62150;43.582;1.456;2023-03-01T14:03:24;12.20;;;5.87;;
17496;SDS011;62150;43.582;1.456;2023-03-01T14:06:05;9.83;;;5.00;;
17496;SDS011;62150;43.582;1.456;2023-03-01T14:08:34;10.07;;;4.90;;
17496;SDS011;62150;43.582;1.456;2023-03-01T14:14:04;11.23;;;5.60;;
17496;SDS011;62150;43.582;1.456;2023-03-01T14:16:49;10.97;;;5.57;;
17496;SDS011;62150;43.582;1.456;2023-03-01T14:19:24;10.70;;;5.40;;
17496;SDS011;62150;43.582;1.456;2023-03-01T14:21:58;10.47;;;5.20;;
17496;SDS011;62150;43.582;1.456;2023-03-01T14:24:31;10.13;;;5.33;;
17496;SDS011;62150;43.582;1.456;2023-03-01T14:27:08;10.40;;;4.77;;
17496;SDS011;62150;43.582;1.456;2023-03-01T14:29:38;9.97;;;5.10;;
17496;SDS011;62150;43.582;1.456;2023-03-01T14:32:10;11.63;;;5.50;;
17496;SDS011;62150;43.582;1.456;2023-03-01T14:34:44;12.00;;;6.37;;
17496;SDS011;62150;43.582;1.456;2023-03-01T14:37:20;12.13;;;6.33;;
17496;SDS011;62150;43.582;1.456;2023-03-01T14:39:49;10.83;;;5.43;;
17496;SDS011;62150;43.582;1.456;2023-03-01T14:42:18;12.10;;;6.37;;
17496;SDS011;62150;43.582;1.456;2023-03-01T14:44:48;11.27;;;5.90;;
17496;SDS011;62150;43.582;1.456;2023-03-01T14:47:26;11.30;;;6.00;;
17496;SDS011;62150;43.582;1.456;2023-03-01T14:49:58;11.03;;;5.13;;
17496;SDS011;62150;43.582;1.456;2023-03-01T14:52:31;11.40;;;6.13;;
17496;SDS011;62150;43.582;1.456;2023-03-01T14:55:03;11.70;;;5.70;;
17496;SDS011;62150;43.582;1.456;2023-03-01T14:57:34;10.83;;;5.40;;
17496;SDS011;62150;43.582;1.456;2023-03-01T15:00:03;11.03;;;5.50;;
17496;SDS011;62150;43.582;1.456;2023-03-01T15:02:33;11.47;;;5.60;;
17496;SDS011;62150;43.582;1.456;2023-03-01T15:05:02;10.30;;;5.33;;
17496;SDS011;62150;43.582;1.456;2023-03-01T15:07:33;11.87;;;5.87;;
17496;SDS011;62150;43.582;1.456;2023-03-01T15:10:03;11.17;;;5.30;;
17496;SDS011;62150;43.582;1.456;2023-03-01T15:12:38;10.87;;;5.20;;
17496;SDS011;62150;43.582;1.456;2023-03-01T15:15:19;10.70;;;5.60;;
17496;SDS011;62150;43.582;1.456;2023-03-01T15:17:51;10.93;;;5.50;;
17496;SDS011;62150;43.582;1.456;2023-03-01T15:20:22;10.57;;;5.30;;
17496;SDS011;62150;43.582;1.456;2023-03-01T15:22:54;10.70;;;5.30;;
17496;SDS011;62150;43.582;1.456;2023-03-01T15:25:23;10.30;;;5.23;;
17496;SDS011;62150;43.582;1.456;2023-03-01T15:27:55;11.13;;;5.80;;
17496;SDS011;62150;43.582;1.456;2023-03-01T15:30:25;11.43;;;5.50;;
17496;SDS011;62150;43.582;1.456;2023-03-01T15:35:45;12.77;;;6.20;;
17496;SDS011;62150;43.582;1.456;2023-03-01T15:41:22;10.17;;;5.00;;
17496;SDS011;62150;43.582;1.456;2023-03-01T15:43:53;11.43;;;5.53;;
17496;SDS011;62150;43.582;1.456;2023-03-01T15:46:22;10.03;;;5.27;;
17496;SDS011;62150;43.582;1.456;2023-03-01T15:48:54;10.00;;;5.03;;
17496;SDS011;62150;43.582;1.456;2023-03-01T15:51:27;10.53;;;5.50;;
17496;SDS011;62150;43.582;1.456;2023-03-01T15:54:00;11.20;;;5.93;;
17496;SDS011;62150;43.582;1.456;2023-03-01T15:56:31;11.13;;;5.63;;
17496;SDS011;62150;43.582;1.456;2023-03-01T15:59:02;10.00;;;5.10;;
17496;SDS011;62150;43.582;1.456;2023-03-01T16:01:32;12.10;;;5.43;;
17496;SDS011;62150;43.582;1.456;2023-03-01T16:04:00;11.00;;;5.57;;
17496;SDS011;62150;43.582;1.456;2023-03-01T16:06:27;10.83;;;5.60;;
17496;SDS011;62150;43.582;1.456;2023-03-01T16:08:55;11.30;;;5.87;;
17496;SDS011;62150;43.582;1.456;2023-03-01T16:11:22;11.57;;;5.73;;
17496;SDS011;62150;43.582;1.456;2023-03-01T16:13:50;9.90;;;4.97;;
17496;SDS011;62150;43.582;1.456;2023-03-01T16:16:19;10.50;;;5.20;;
17496;SDS011;62150;43.582;1.456;2023-03-01T16:18:47;10.47;;;5.30;;
17496;SDS011;62150;43.582;1.456;2023-03-01T16:21:16;8.60;;;4.60;;
17496;SDS011;62150;43.582;1.456;2023-03-01T16:23:47;11.10;;;5.57;;
17496;SDS011;62150;43.582;1.456;2023-03-01T16:26:15;10.87;;;5.40;;
17496;SDS011;62150;43.582;1.456;2023-03-01T16:28:43;11.67;;;5.93;;
17496;SDS011;62150;43.582;1.456;2023-03-01T16:31:11;11.30;;;5.53;;
17496;SDS011;62150;43.582;1.456;2023-03-01T16:33:45;12.00;;;5.73;;
17496;SDS011;62150;43.582;1.456;2023-03-01T16:36:15;10.83;;;5.70;;
17496;SDS011;62150;43.582;1.456;2023-03-01T16:38:44;11.57;;;5.53;;
17496;SDS011;62150;43.582;1.456;2023-03-01T16:41:14;11.07;;;5.50;;
17496;SDS011;62150;43.582;1.456;2023-03-01T16:43:42;10.83;;;5.10;;
17496;SDS011;62150;43.582;1.456;2023-03-01T16:46:11;11.33;;;5.90;;
17496;SDS011;62150;43.582;1.456;2023-03-01T16:48:40;9.60;;;4.67;;
17496;SDS011;62150;43.582;1.456;2023-03-01T16:51:09;10.77;;;4.87;;
17496;SDS011;62150;43.582;1.456;2023-03-01T16:53:37;11.43;;;5.37;;
17496;SDS011;62150;43.582;1.456;2023-03-01T16:56:06;11.13;;;5.67;;
17496;SDS011;62150;43.582;1.456;2023-03-01T16:58:36;10.10;;;5.03;;
17496;SDS011;62150;43.582;1.456;2023-03-01T17:01:05;11.33;;;5.40;;
17496;SDS011;62150;43.582;1.456;2023-03-01T17:03:34;10.50;;;5.00;;
17496;SDS011;62150;43.582;1.456;2023-03-01T17:06:02;12.67;;;5.40;;
17496;SDS011;62150;43.582;1.456;2023-03-01T17:08:32;11.97;;;5.77;;
17496;SDS011;62150;43.582;1.456;2023-03-01T17:11:06;11.07;;;5.73;;
17496;SDS011;62150;43.582;1.456;2023-03-01T17:13:35;10.90;;;5.33;;
17496;SDS011;62150;43.582;1.456;2023-03-01T17:16:04;10.27;;;5.20;;
17496;SDS011;62150;43.582;1.456;2023-03-01T17:18:33;10.90;;;5.37;;
17496;SDS011;62150;43.582;1.456;2023-03-01T17:21:01;11.80;;;5.43;;
17496;SDS011;62150;43.582;1.456;2023-03-01T17:23:29;10.67;;;5.30;;
17496;SDS011;62150;43.582;1.456;2023-03-01T17:25:59;10.80;;;5.10;;
17496;SDS011;62150;43.582;1.456;2023-03-01T17:28:28;9.93;;;4.80;;
17496;SDS011;62150;43.582;1.456;2023-03-01T17:30:57;11.77;;;5.30;;
17496;SDS011;62150;43.582;1.456;2023-03-01T17:33:25;10.53;;;5.17;;
17496;SDS011;62150;43.582;1.456;2023-03-01T17:35:55;11.13;;;5.60;;
17496;SDS011;62150;43.582;1.456;2023-03-01T17:38:23;10.60;;;5.27;;
17496;SDS011;62150;43.582;1.456;2023-03-01T17:40:52;10.80;;;5.43;;
17496;SDS011;62150;43.582;1.456;2023-03-01T17:43:19;11.90;;;6.00;;
17496;SDS011;62150;43.582;1.456;2023-03-01T17:45:47;11.10;;;5.80;;
17496;SDS011;62150;43.582;1.456;2023-03-01T17:48:16;10.50;;;5.63;;
17496;SDS011;62150;43.582;1.456;2023-03-01T17:50:44;10.90;;;5.63;;
17496;SDS011;62150;43.582;1.456;2023-03-01T17:53:11;10.97;;;5.67;;
17496;SDS011;62150;43.582;1.456;2023-03-01T17:55:40;11.10;;;5.80;;
17496;SDS011;62150;43.582;1.456;2023-03-01T17:58:11;13.47;;;6.03;;
17496;SDS011;62150;43.582;1.456;2023-03-01T18:00:41;11.07;;;5.33;;
17496;SDS011;62150;43.582;1.456;2023-03-01T18:03:09;13.17;;;6.30;;
17496;SDS011;62150;43.582;1.456;2023-03-01T18:05:36;11.17;;;5.63;;
17496;SDS011;62150;43.582;1.456;2023-03-01T18:08:04;12.87;;;6.27;;
17496;SDS011;62150;43.582;1.456;2023-03-01T18:10:32;12.70;;;6.37;;
17496;SDS011;62150;43.582;1.456;2023-03-01T18:13:01;13.40;;;6.40;;
17496;SDS011;62150;43.582;1.456;2023-03-01T18:15:30;11.83;;;5.87;;
17496;SDS011;62150;43.582;1.456;2023-03-01T18:17:58;11.13;;;5.60;;
17496;SDS011;62150;43.582;1.456;2023-03-01T18:20:25;11.00;;;5.63;;
17496;SDS011;62150;43.582;1.456;2023-03-01T18:22:54;11.47;;;5.80;;
17496;SDS011;62150;43.582;1.456;2023-03-01T18:25:22;11.80;;;5.80;;
17496;SDS011;62150;43.582;1.456;2023-03-01T18:27:49;12.57;;;6.37;;
17496;SDS011;62150;43.582;1.456;2023-03-01T18:30:17;11.07;;;5.73;;
17496;SDS011;62150;43.582;1.456;2023-03-01T18:32:46;10.60;;;5.23;;
17496;SDS011;62150;43.582;1.456;2023-03-01T18:35:20;13.13;;;5.93;;
17496;SDS011;62150;43.582;1.456;2023-03-01T18:37:48;11.90;;;6.17;;
17496;SDS011;62150;43.582;1.456;2023-03-01T18:40:15;12.33;;;6.20;;
17496;SDS011;62150;43.582;1.456;2023-03-01T18:42:43;12.90;;;6.60;;
17496;SDS011;62150;43.582;1.456;2023-03-01T18:45:11;12.27;;;5.90;;
17496;SDS011;62150;43.582;1.456;2023-03-01T18:47:41;12.87;;;6.73;;
17496;SDS011;62150;43.582;1.456;2023-03-01T18:50:10;11.67;;;6.03;;
17496;SDS011;62150;43.582;1.456;2023-03-01T18:52:40;13.10;;;6.70;;
17496;SDS011;62150;43.582;1.456;2023-03-01T18:55:08;12.53;;;6.47;;
17496;SDS011;62150;43.582;1.456;2023-03-01T18:57:36;13.23;;;6.87;;
17496;SDS011;62150;43.582;1.456;2023-03-01T19:00:04;12.90;;;6.93;;
17496;SDS011;62150;43.582;1.456;2023-03-01T19:02:32;12.90;;;6.60;;
17496;SDS011;62150;43.582;1.456;2023-03-01T19:05:00;12.67;;;6.80;;
17496;SDS011;62150;43.582;1.456;2023-03-01T19:07:29;12.97;;;6.77;;
17496;SDS011;62150;43.582;1.456;2023-03-01T19:09:56;13.80;;;6.83;;
17496;SDS011;62150;43.582;1.456;2023-03-01T19:12:24;12.63;;;6.90;;
17496;SDS011;62150;43.582;1.456;2023-03-01T19:14:52;13.23;;;6.80;;
17496;SDS011;62150;43.582;1.456;2023-03-01T19:17:20;13.30;;;6.67;;
17496;SDS011;62150;43.582;1.456;2023-03-01T19:19:48;13.37;;;6.60;;
17496;SDS011;62150;43.582;1.456;2023-03-01T19:22:16;13.00;;;6.73;;
17496;SDS011;62150;43.582;1.456;2023-03-01T19:24:45;14.07;;;7.47;;
17496;SDS011;62150;43.582;1.456;2023-03-01T19:27:12;14.73;;;7.80;;
17496;SDS011;62150;43.582;1.456;2023-03-01T19:29:40;14.50;;;7.43;;
17496;SDS011;62150;43.582;1.456;2023-03-01T19:32:08;12.73;;;7.27;;
17496;SDS011;62150;43.582;1.456;2023-03-01T19:34:38;13.37;;;7.53;;
17496;SDS011;62150;43.582;1.456;2023-03-01T19:37:06;13.90;;;7.23;;
17496;SDS011;62150;43.582;1.456;2023-03-01T19:39:34;12.97;;;7.43;;
17496;SDS011;62150;43.582;1.456;2023-03-01T19:42:03;13.77;;;7.43;;
17496;SDS011;62150;43.582;1.456;2023-03-01T19:44:31;14.47;;;7.87;;
17496;SDS011;62150;43.582;1.456;2023-03-01T19:46:58;13.80;;;7.33;;
17496;SDS011;62150;43.582;1.456;2023-03-01T19:49:26;14.47;;;7.43;;
17496;SDS011;62150;43.582;1.456;2023-03-01T19:51:54;13.50;;;7.30;;
17496;SDS011;62150;43.582;1.456;2023-03-01T19:54:21;14.33;;;7.97;;
17496;SDS011;62150;43.582;1.456;2023-03-01T19:56:49;14.07;;;7.63;;
17496;SDS011;62150;43.582;1.456;2023-03-01T19:59:18;14.30;;;7.57;;
17496;SDS011;62150;43.582;1.456;2023-03-01T20:01:48;14.57;;;7.83;;
17496;SDS011;62150;43.582;1.456;2023-03-01T20:04:15;14.33;;;7.80;;
17496;SDS011;62150;43.582;1.456;2023-03-01T20:06:43;15.40;;;7.97;;
17496;SDS011;62150;43.582;1.456;2023-03-01T20:09:12;14.10;;;8.00;;
17496;SDS011;62150;43.582;1.456;2023-03-01T20:11:39;14.20;;;7.43;;
17496;SDS011;62150;43.582;1.456;2023-03-01T20:14:07;14.93;;;7.93;;
17496;SDS011;62150;43.582;1.456;2023-03-01T20:16:37;14.73;;;8.10;;
17496;SDS011;62150;43.582;1.456;2023-03-01T20:19:05;14.07;;;7.97;;
17496;SDS011;62150;43.582;1.456;2023-03-01T20:21:33;15.27;;;7.90;;
17496;SDS011;62150;43.582;1.456;2023-03-01T20:24:00;14.90;;;7.87;;
17496;SDS011;62150;43.582;1.456;2023-03-01T20:26:28;15.77;;;8.43;;
17496;SDS011;62150;43.582;1.456;2023-03-01T20:28:57;14.70;;;8.40;;
17496;SDS011;62150;43.582;1.456;2023-03-01T20:31:25;15.20;;;9.00;;
17496;SDS011;62150;43.582;1.456;2023-03-01T20:33:55;15.27;;;8.93;;
17496;SDS011;62150;43.582;1.456;2023-03-01T20:36:23;15.33;;;9.17;;
17496;SDS011;62150;43.582;1.456;2023-03-01T20:38:52;14.83;;;8.53;;
17496;SDS011;62150;43.582;1.456;2023-03-01T20:41:20;14.47;;;8.20;;
17496;SDS011;62150;43.582;1.456;2023-03-01T20:43:50;13.77;;;8.27;;
17496;SDS011;62150;43.582;1.456;2023-03-01T20:46:23;14.97;;;8.53;;
17496;SDS011;62150;43.582;1.456;2023-03-01T20:48:57;14.23;;;7.80;;
17496;SDS011;62150;43.582;1.456;2023-03-01T20:51:25;14.97;;;8.23;;
17496;SDS011;62150;43.582;1.456;2023-03-01T20:53:53;16.90;;;9.40;;
17496;SDS011;62150;43.582;1.456;2023-03-01T20:56:21;14.03;;;7.87;;
17496;SDS011;62150;43.582;1.456;2023-03-01T20:58:50;15.27;;;8.37;;
17496;SDS011;62150;43.582;1.456;2023-03-01T21:01:19;13.30;;;8.00;;
17496;SDS011;62150;43.582;1.456;2023-03-01T21:03:49;14.63;;;8.23;;
17496;SDS011;62150;43.582;1.456;2023-03-01T21:06:21;14.00;;;8.07;;
17496;SDS011;62150;43.582;1.456;2023-03-01T21:08:49;14.40;;;8.10;;
17496;SDS011;62150;43.582;1.456;2023-03-01T21:11:19;13.40;;;7.30;;
17496;SDS011;62150;43.582;1.456;2023-03-01T21:13:49;14.53;;;7.90;;
17496;SDS011;62150;43.582;1.456;2023-03-01T21:16:19;15.03;;;7.70;;
17496;SDS011;62150;43.582;1.456;2023-03-01T21:18:47;14.60;;;8.40;;
17496;SDS011;62150;43.582;1.456;2023-03-01T21:21:16;15.23;;;8.13;;
17496;SDS011;62150;43.582;1.456;2023-03-01T21:23:47;15.70;;;8.10;;
17496;SDS011;62150;43.582;1.456;2023-03-01T21:26:15;14.43;;;8.27;;
17496;SDS011;62150;43.582;1.456;2023-03-01T21:28:47;14.67;;;7.97;;
17496;SDS011;62150;43.582;1.456;2023-03-01T21:31:19;14.67;;;8.00;;
17496;SDS011;62150;43.582;1.456;2023-03-01T21:33:49;14.37;;;7.50;;
17496;SDS011;62150;43.582;1.456;2023-03-01T21:36:18;15.20;;;8.37;;
17496;SDS011;62150;43.582;1.456;2023-03-01T21:38:49;13.33;;;7.67;;
17496;SDS011;62150;43.582;1.456;2023-03-01T21:41:21;14.50;;;7.40;;
17496;SDS011;62150;43.582;1.456;2023-03-01T21:43:57;12.77;;;6.60;;
17496;SDS011;62150;43.582;1.456;2023-03-01T21:46:27;13.13;;;7.07;;
17496;SDS011;62150;43.582;1.456;2023-03-01T21:48:56;13.83;;;7.00;;
17496;SDS011;62150;43.582;1.456;2023-03-01T21:51:25;12.73;;;7.20;;
17496;SDS011;62150;43.582;1.456;2023-03-01T21:53:56;13.30;;;7.07;;
17496;SDS011;62150;43.582;1.456;2023-03-01T21:56:27;12.53;;;6.70;;